Time;durP1;ratioP1;P1;durP2;ratioP2;P2;SDS_P1;SDS_P2;PMS_P1;PMS_P2;Temp;Humidity;BMP_temperature;BMP_pressure;BME280_temperature;BME280_humidity;BME280_pressure;Samples;Min_cycle;Max_cycle;Signal;HPM_P1;HPM_P2
2022/10/24 00:01:00;;;;;;;4.10;2.57;;;;;;;;;;5054097;28;20204;-45
2022/10/24 00:03:26;;;;;;;2.77;2.50;;;;;;;;;;5071741;28;20717;-45
2022/10/24 00:05:52;;;;;;;3.27;2.40;;;;;;;;;;5071678;28;20314;-45
2022/10/24 00:08:18;;;;;;;3.93;2.37;;;;;;;;;;5071724;28;20257;-45
2022/10/24 00:10:45;;;;;;;5.57;2.67;;;;;;;;;;5071093;28;20245;-45
2022/10/24 00:13:13;;;;;;;4.63;2.37;;;;;;;;;;5070741;28;20656;-45
2022/10/24 00:15:39;;;;;;;4.50;2.47;;;;;;;;;;5071624;28;20237;-44
2022/10/24 00:18:05;;;;;;;5.77;2.60;;;;;;;;;;5071329;28;20712;-45
2022/10/24 00:20:31;;;;;;;6.73;2.73;;;;;;;;;;5071623;28;20200;-45
2022/10/24 00:22:57;;;;;;;6.67;2.67;;;;;;;;;;5071123;28;20554;-44
2022/10/24 00:25:23;;;;;;;5.40;2.90;;;;;;;;;;5071546;28;20227;-45
2022/10/24 00:27:49;;;;;;;3.20;2.13;;;;;;;;;;5071302;28;20648;-45
2022/10/24 00:30:17;;;;;;;2.77;2.00;;;;;;;;;;5071347;28;20286;-44
2022/10/24 00:32:43;;;;;;;3.17;2.00;;;;;;;;;;5071260;28;20207;-44
2022/10/24 00:35:09;;;;;;;7.77;2.77;;;;;;;;;;5071393;28;20191;-44
2022/10/24 00:37:35;;;;;;;5.07;2.50;;;;;;;;;;5071489;28;20192;-45
2022/10/24 00:40:01;;;;;;;7.20;2.40;;;;;;;;;;5071238;28;20200;-44
2022/10/24 00:42:27;;;;;;;4.33;2.37;;;;;;;;;;5071080;28;20200;-45
2022/10/24 00:44:53;;;;;;;5.67;2.70;;;;;;;;;;5071243;28;20746;-45
2022/10/24 00:47:23;;;;;;;3.97;2.17;;;;;;;;;;5070303;28;20728;-45
2022/10/24 00:49:51;;;;;;;3.83;2.10;;;;;;;;;;5071419;28;20208;-45
2022/10/24 00:52:20;;;;;;;7.10;2.53;;;;;;;;;;5071180;28;20218;-45
2022/10/24 00:54:46;;;;;;;2.87;2.13;;;;;;;;;;5070940;28;20191;-45
2022/10/24 00:57:14;;;;;;;5.30;2.47;;;;;;;;;;5070510;28;20192;-45
2022/10/24 00:59:42;;;;;;;4.67;2.40;;;;;;;;;;5069921;28;20400;-45
2022/10/24 01:02:08;;;;;;;2.80;2.50;;;;;;;;;;5071172;28;20576;-45
2022/10/24 01:04:36;;;;;;;4.47;2.40;;;;;;;;;;5071044;28;20231;-45
2022/10/24 01:07:10;;;;;;;5.90;2.70;;;;;;;;;;5071067;28;20269;-45
2022/10/24 01:09:43;;;;;;;5.83;2.40;;;;;;;;;;5070579;28;20221;-45
2022/10/24 01:12:14;;;;;;;5.63;2.80;;;;;;;;;;5070835;28;20199;-45
2022/10/24 01:14:44;;;;;;;4.87;2.50;;;;;;;;;;5071271;28;20293;-45
2022/10/24 01:17:13;;;;;;;6.60;2.90;;;;;;;;;;5069995;28;20200;-45
2022/10/24 01:19:59;;;;;;;3.13;2.50;;;;;;;;;;5070667;28;20245;-45
2022/10/24 01:22:28;;;;;;;4.37;2.60;;;;;;;;;;5075112;28;20251;-45
2022/10/24 01:25:02;;;;;;;3.67;2.20;;;;;;;;;;5074833;28;20195;-45
2022/10/24 01:27:38;;;;;;;7.43;2.70;;;;;;;;;;5074952;28;20233;-45
2022/10/24 01:30:07;;;;;;;4.03;2.30;;;;;;;;;;5074680;28;20195;-45
2022/10/24 01:32:36;;;;;;;4.67;2.47;;;;;;;;;;5074817;28;20199;-45
2022/10/24 01:35:11;;;;;;;8.50;2.57;;;;;;;;;;5074779;28;20196;-45
2022/10/24 01:37:38;;;;;;;4.87;2.87;;;;;;;;;;5074828;28;20222;-45
2022/10/24 01:40:07;;;;;;;3.47;2.60;;;;;;;;;;5074763;28;20291;-45
2022/10/24 01:42:35;;;;;;;6.97;2.60;;;;;;;;;;5074896;28;20268;-44
2022/10/24 01:45:03;;;;;;;7.40;2.70;;;;;;;;;;5073716;28;20192;-45
2022/10/24 01:47:32;;;;;;;7.30;2.40;;;;;;;;;;5074360;28;20245;-45
2022/10/24 01:50:01;;;;;;;7.47;2.80;;;;;;;;;;5074402;28;20208;-45
2022/10/24 01:52:28;;;;;;;5.27;2.43;;;;;;;;;;5074525;28;20210;-45
2022/10/24 01:54:54;;;;;;;5.07;2.80;;;;;;;;;;5074523;28;20581;-45
2022/10/24 01:57:20;;;;;;;4.73;2.73;;;;;;;;;;5074297;28;20539;-45
2022/10/24 01:59:47;;;;;;;4.27;2.87;;;;;;;;;;5073456;28;20200;-45
2022/10/24 02:02:16;;;;;;;10.63;2.93;;;;;;;;;;5074193;28;20199;-45
2022/10/24 02:04:45;;;;;;;5.23;3.23;;;;;;;;;;5073928;28;20646;-45
2022/10/24 02:07:12;;;;;;;7.40;2.87;;;;;;;;;;5073846;28;20280;-45
2022/10/24 02:09:39;;;;;;;5.33;2.60;;;;;;;;;;5073967;28;20203;-45
2022/10/24 02:12:07;;;;;;;4.43;2.30;;;;;;;;;;5072363;28;20274;-44
2022/10/24 02:14:34;;;;;;;9.67;2.90;;;;;;;;;;5073646;28;20206;-45
2022/10/24 02:17:00;;;;;;;5.37;2.90;;;;;;;;;;5074059;28;20720;-44
2022/10/24 02:19:26;;;;;;;5.93;2.70;;;;;;;;;;5073841;28;21102;-45
2022/10/24 02:21:58;;;;;;;9.33;3.17;;;;;;;;;;5074022;28;20191;-45
2022/10/24 02:24:26;;;;;;;5.57;2.83;;;;;;;;;;5073753;28;20214;-45
2022/10/24 02:26:55;;;;;;;7.97;2.80;;;;;;;;;;5072498;28;20732;-44
2022/10/24 02:29:24;;;;;;;6.50;3.07;;;;;;;;;;5072759;28;20229;-44
2022/10/24 02:31:53;;;;;;;6.73;3.63;;;;;;;;;;5073132;28;20686;-43
2022/10/24 02:34:19;;;;;;;5.47;2.73;;;;;;;;;;5073795;28;20200;-45
2022/10/24 02:36:47;;;;;;;6.60;3.50;;;;;;;;;;5074041;28;20192;-44
2022/10/24 02:39:15;;;;;;;8.27;2.87;;;;;;;;;;5073738;28;20196;-45
2022/10/24 02:41:42;;;;;;;8.30;3.33;;;;;;;;;;5073987;28;20222;-45
2022/10/24 02:44:08;;;;;;;7.17;2.70;;;;;;;;;;5073365;28;20290;-45
2022/10/24 02:46:35;;;;;;;12.33;3.67;;;;;;;;;;5073306;28;20686;-44
2022/10/24 02:49:02;;;;;;;6.80;3.10;;;;;;;;;;5073488;28;20870;-45
2022/10/24 02:51:30;;;;;;;4.83;2.57;;;;;;;;;;5073205;28;20231;-45
2022/10/24 02:53:57;;;;;;;5.00;2.73;;;;;;;;;;5073348;28;20200;-45
2022/10/24 02:56:24;;;;;;;5.00;2.70;;;;;;;;;;5073235;28;20329;-45
2022/10/24 02:58:50;;;;;;;6.30;2.97;;;;;;;;;;5073125;28;20203;-45
2022/10/24 03:01:16;;;;;;;7.43;3.03;;;;;;;;;;5073237;28;20249;-45
2022/10/24 03:03:42;;;;;;;7.30;2.90;;;;;;;;;;5073088;28;20256;-45
2022/10/24 03:06:08;;;;;;;6.63;3.20;;;;;;;;;;5072802;28;20230;-45
2022/10/24 03:08:34;;;;;;;6.73;3.20;;;;;;;;;;5072930;28;20223;-45
2022/10/24 03:11:00;;;;;;;7.83;3.13;;;;;;;;;;5073066;28;20196;-45
2022/10/24 03:13:28;;;;;;;4.83;2.90;;;;;;;;;;5072869;28;20203;-45
2022/10/24 03:15:54;;;;;;;8.63;3.27;;;;;;;;;;5072981;28;20230;-45
2022/10/24 03:18:20;;;;;;;5.93;3.10;;;;;;;;;;5072826;28;20203;-45
2022/10/24 03:20:46;;;;;;;7.87;3.40;;;;;;;;;;5072974;28;20196;-45
2022/10/24 03:23:12;;;;;;;7.90;3.03;;;;;;;;;;5072712;28;20203;-45
2022/10/24 03:25:38;;;;;;;8.67;3.40;;;;;;;;;;5072561;28;20712;-45
2022/10/24 03:28:04;;;;;;;7.53;3.30;;;;;;;;;;5072501;28;20572;-45
2022/10/24 03:30:32;;;;;;;5.10;2.93;;;;;;;;;;5072627;28;20208;-44
2022/10/24 03:32:58;;;;;;;4.03;3.37;;;;;;;;;;5072671;28;20287;-44
2022/10/24 03:35:24;;;;;;;5.40;3.00;;;;;;;;;;5072440;28;20278;-44
2022/10/24 03:37:50;;;;;;;6.67;3.23;;;;;;;;;;5072489;28;20192;-44
2022/10/24 03:40:16;;;;;;;7.80;3.40;;;;;;;;;;5072392;28;20195;-44
2022/10/24 03:42:42;;;;;;;8.30;3.60;;;;;;;;;;5072471;28;20199;-44
2022/10/24 03:45:08;;;;;;;5.53;3.80;;;;;;;;;;5071245;28;20199;-44
2022/10/24 03:47:36;;;;;;;4.37;3.10;;;;;;;;;;5072433;28;20277;-44
2022/10/24 03:50:02;;;;;;;8.27;3.20;;;;;;;;;;5072402;28;20207;-45
2022/10/24 03:52:28;;;;;;;6.47;3.07;;;;;;;;;;5072186;28;20215;-45
2022/10/24 03:54:54;;;;;;;5.20;3.13;;;;;;;;;;5072214;28;20230;-44
2022/10/24 03:57:20;;;;;;;8.53;3.00;;;;;;;;;;5071799;28;20191;-45
2022/10/24 03:59:46;;;;;;;7.77;3.17;;;;;;;;;;5069044;28;20249;-44
2022/10/24 04:02:13;;;;;;;4.97;3.00;;;;;;;;;;5071481;28;20249;-44
2022/10/24 04:04:41;;;;;;;6.30;3.20;;;;;;;;;;5071327;28;20666;-44
2022/10/24 04:07:07;;;;;;;5.23;3.17;;;;;;;;;;5071168;28;20228;-44
2022/10/24 04:09:33;;;;;;;6.07;3.37;;;;;;;;;;5071246;28;20620;-44
2022/10/24 04:11:59;;;;;;;4.47;3.07;;;;;;;;;;5071804;28;20221;-44
2022/10/24 04:14:25;;;;;;;3.63;3.10;;;;;;;;;;5071377;28;20630;-44
2022/10/24 04:16:51;;;;;;;6.90;3.17;;;;;;;;;;5070594;28;20192;-44
2022/10/24 04:19:17;;;;;;;7.90;3.33;;;;;;;;;;5071736;28;20665;-44
2022/10/24 04:21:46;;;;;;;5.90;2.80;;;;;;;;;;5071937;28;20212;-44
2022/10/24 04:24:13;;;;;;;4.87;3.30;;;;;;;;;;5071634;28;20705;-44
2022/10/24 04:26:39;;;;;;;5.17;2.80;;;;;;;;;;5071169;28;20235;-44
2022/10/24 04:29:05;;;;;;;5.97;3.27;;;;;;;;;;5071157;28;20222;-44
2022/10/24 04:31:31;;;;;;;6.63;3.30;;;;;;;;;;5070174;28;20252;-44
2022/10/24 04:33:57;;;;;;;7.27;3.40;;;;;;;;;;5070348;28;20199;-44
2022/10/24 04:36:23;;;;;;;5.90;3.20;;;;;;;;;;5070538;28;20257;-44
2022/10/24 04:38:50;;;;;;;7.23;2.77;;;;;;;;;;5071519;28;20215;-44
2022/10/24 04:41:16;;;;;;;7.50;3.30;;;;;;;;;;5071370;28;20204;-44
2022/10/24 04:43:42;;;;;;;5.43;2.67;;;;;;;;;;5071298;28;20257;-44
2022/10/24 04:46:08;;;;;;;8.60;2.80;;;;;;;;;;5070415;28;20590;-44
2022/10/24 04:48:34;;;;;;;6.40;2.80;;;;;;;;;;5071431;28;20195;-44
2022/10/24 04:51:01;;;;;;;3.87;2.93;;;;;;;;;;5071050;28;20277;-44
2022/10/24 04:53:27;;;;;;;4.87;3.07;;;;;;;;;;5071078;28;20222;-44
2022/10/24 04:55:54;;;;;;;9.47;3.20;;;;;;;;;;5071088;28;20547;-44
2022/10/24 04:58:20;;;;;;;7.20;3.37;;;;;;;;;;5070937;28;20294;-44
2022/10/24 05:00:48;;;;;;;6.30;3.30;;;;;;;;;;5069818;28;20609;-44
2022/10/24 05:03:14;;;;;;;6.57;3.57;;;;;;;;;;5070569;28;20734;-44
2022/10/24 05:05:40;;;;;;;5.33;3.07;;;;;;;;;;5071006;28;20198;-45
2022/10/24 05:08:06;;;;;;;8.77;3.70;;;;;;;;;;5070924;28;20259;-44
2022/10/24 05:10:32;;;;;;;9.10;3.80;;;;;;;;;;5070605;28;20226;-44
2022/10/24 05:13:00;;;;;;;5.07;3.33;;;;;;;;;;5069723;28;20191;-44
2022/10/24 05:15:28;;;;;;;7.37;4.13;;;;;;;;;;5069958;28;20424;-44
2022/10/24 05:17:54;;;;;;;7.70;3.53;;;;;;;;;;5069935;28;20211;-44
2022/10/24 05:20:20;;;;;;;6.37;3.83;;;;;;;;;;5069622;28;20191;-45
2022/10/24 05:22:46;;;;;;;7.10;3.67;;;;;;;;;;5070856;28;20217;-44
2022/10/24 05:25:12;;;;;;;11.27;3.67;;;;;;;;;;5070706;28;20196;-44
2022/10/24 05:27:39;;;;;;;6.30;3.53;;;;;;;;;;5070839;28;20227;-44
2022/10/24 05:30:07;;;;;;;7.50;3.70;;;;;;;;;;5070597;28;20245;-44
2022/10/24 05:32:33;;;;;;;5.37;3.00;;;;;;;;;;5069913;28;20234;-44
2022/10/24 05:35:02;;;;;;;3.93;3.17;;;;;;;;;;5069793;28;20203;-44
2022/10/24 05:37:28;;;;;;;5.60;3.27;;;;;;;;;;5070728;28;20194;-44
2022/10/24 05:39:54;;;;;;;5.83;3.20;;;;;;;;;;5070122;28;20311;-44
2022/10/24 05:42:20;;;;;;;6.97;3.83;;;;;;;;;;5070495;28;20761;-44
2022/10/24 05:44:46;;;;;;;8.80;3.40;;;;;;;;;;5070273;28;20238;-45
2022/10/24 05:47:13;;;;;;;6.80;3.33;;;;;;;;;;5069882;28;20223;-45
2022/10/24 05:49:39;;;;;;;8.57;3.43;;;;;;;;;;5070143;28;20211;-43
2022/10/24 05:52:05;;;;;;;8.73;3.80;;;;;;;;;;5070293;28;20333;-45
2022/10/24 05:54:31;;;;;;;6.80;3.33;;;;;;;;;;5070944;28;20290;-45
2022/10/24 05:56:57;;;;;;;5.33;3.40;;;;;;;;;;5070494;28;20700;-44
2022/10/24 05:59:23;;;;;;;4.57;3.23;;;;;;;;;;5069817;28;20218;-44
2022/10/24 06:01:49;;;;;;;7.90;3.80;;;;;;;;;;5069364;28;20295;-44
2022/10/24 06:04:17;;;;;;;10.23;3.40;;;;;;;;;;5070308;28;20195;-44
2022/10/24 06:06:44;;;;;;;7.53;3.60;;;;;;;;;;5070289;28;20250;-44
2022/10/24 06:09:10;;;;;;;6.27;3.53;;;;;;;;;;5073637;28;20705;-44
2022/10/24 06:11:36;;;;;;;11.17;3.67;;;;;;;;;;5071672;28;20211;-44
2022/10/24 06:14:02;;;;;;;7.57;3.80;;;;;;;;;;5072962;28;20202;-44
2022/10/24 06:16:29;;;;;;;7.23;2.80;;;;;;;;;;5073945;28;20196;-44
2022/10/24 06:18:56;;;;;;;9.10;3.50;;;;;;;;;;5072663;28;20246;-44
2022/10/24 06:21:23;;;;;;;4.70;3.00;;;;;;;;;;5072638;28;20200;-44
2022/10/24 06:23:50;;;;;;;8.07;3.40;;;;;;;;;;5073137;28;20199;-44
2022/10/24 06:26:16;;;;;;;8.27;3.33;;;;;;;;;;5073644;28;20223;-44
2022/10/24 06:28:42;;;;;;;4.80;3.33;;;;;;;;;;5074494;28;20198;-44
2022/10/24 06:31:11;;;;;;;10.33;3.50;;;;;;;;;;5073602;28;20191;-45
2022/10/24 06:33:37;;;;;;;4.77;3.20;;;;;;;;;;5072709;28;20738;-45
2022/10/24 06:36:04;;;;;;;7.03;3.13;;;;;;;;;;5073871;28;20223;-45
2022/10/24 06:38:32;;;;;;;5.63;2.93;;;;;;;;;;5064668;28;20188;-45
2022/10/24 06:40:58;;;;;;;5.83;3.17;;;;;;;;;;5061850;28;20207;-45
2022/10/24 06:43:24;;;;;;;6.93;3.30;;;;;;;;;;5063028;28;20222;-45
2022/10/24 06:45:50;;;;;;;6.43;3.03;;;;;;;;;;5063137;28;20192;-45
2022/10/24 06:48:16;;;;;;;5.83;2.70;;;;;;;;;;5061525;28;20240;-45
2022/10/24 06:50:42;;;;;;;5.70;3.23;;;;;;;;;;5063185;28;20718;-45
2022/10/24 06:53:09;;;;;;;8.67;3.10;;;;;;;;;;5062734;28;20207;-45
2022/10/24 06:55:39;;;;;;;4.63;3.17;;;;;;;;;;5061451;28;20257;-43
2022/10/24 06:58:05;;;;;;;6.57;3.47;;;;;;;;;;5062882;28;20211;-45
2022/10/24 07:00:31;;;;;;;7.37;2.93;;;;;;;;;;5062911;28;20599;-45
2022/10/24 07:02:58;;;;;;;11.23;3.23;;;;;;;;;;5061283;28;20200;-45
2022/10/24 07:05:24;;;;;;;5.10;2.80;;;;;;;;;;5062752;28;20200;-45
2022/10/24 07:07:50;;;;;;;8.83;3.00;;;;;;;;;;5062718;28;20274;-45
2022/10/24 07:10:16;;;;;;;6.50;2.97;;;;;;;;;;5061049;28;20215;-45
2022/10/24 07:12:43;;;;;;;6.67;2.90;;;;;;;;;;5062784;28;20192;-44
2022/10/24 07:15:09;;;;;;;5.93;2.93;;;;;;;;;;5062340;28;20338;-44
2022/10/24 07:17:38;;;;;;;8.93;2.97;;;;;;;;;;5066870;28;20191;-44
2022/10/24 07:20:04;;;;;;;7.80;3.07;;;;;;;;;;5071832;28;20196;-44
2022/10/24 07:22:30;;;;;;;5.63;2.90;;;;;;;;;;5072599;28;20206;-44
2022/10/24 07:24:56;;;;;;;7.30;3.13;;;;;;;;;;5072880;28;20199;-44
2022/10/24 07:27:32;;;;;;;5.70;2.70;;;;;;;;;;5073013;28;20231;-46
2022/10/24 07:29:59;;;;;;;5.93;2.93;;;;;;;;;;5072739;28;20201;-44
2022/10/24 07:32:25;;;;;;;8.67;3.00;;;;;;;;;;5072072;28;20200;-43
2022/10/24 07:34:51;;;;;;;5.80;3.00;;;;;;;;;;5071384;28;20199;-45
2022/10/24 07:37:18;;;;;;;7.97;2.70;;;;;;;;;;5072412;28;20188;-45
2022/10/24 07:39:45;;;;;;;5.43;2.70;;;;;;;;;;5072558;28;20201;-45
2022/10/24 07:42:11;;;;;;;6.37;2.63;;;;;;;;;;5072231;28;20208;-45
2022/10/24 07:44:37;;;;;;;11.90;2.97;;;;;;;;;;5072247;28;20237;-43
2022/10/24 07:47:07;;;;;;;9.07;2.47;;;;;;;;;;5071570;28;20235;-45
2022/10/24 07:49:33;;;;;;;7.23;2.70;;;;;;;;;;5071824;28;20585;-44
2022/10/24 07:51:59;;;;;;;7.70;2.40;;;;;;;;;;5072131;28;20284;-45
2022/10/24 07:54:27;;;;;;;7.67;2.83;;;;;;;;;;5071470;28;20191;-45
2022/10/24 07:56:53;;;;;;;5.67;2.23;;;;;;;;;;5071927;28;20219;-45
2022/10/24 07:59:19;;;;;;;9.30;2.60;;;;;;;;;;5071206;28;20199;-46
2022/10/24 08:01:45;;;;;;;5.00;2.47;;;;;;;;;;5072106;28;20199;-45
2022/10/24 08:04:13;;;;;;;7.30;2.67;;;;;;;;;;5072026;28;20287;-45
2022/10/24 08:06:41;;;;;;;5.30;2.30;;;;;;;;;;5071948;28;20227;-46
2022/10/24 08:09:07;;;;;;;9.40;2.80;;;;;;;;;;5071184;28;20294;-45
2022/10/24 08:11:34;;;;;;;8.37;2.60;;;;;;;;;;5071606;28;20203;-44
2022/10/24 08:14:03;;;;;;;7.30;2.80;;;;;;;;;;5071301;28;20196;-45
2022/10/24 08:16:29;;;;;;;6.23;2.57;;;;;;;;;;5071183;28;20673;-45
2022/10/24 08:18:56;;;;;;;5.83;2.60;;;;;;;;;;5071826;28;20195;-45
2022/10/24 08:21:24;;;;;;;6.77;2.53;;;;;;;;;;5071346;28;20204;-45
2022/10/24 08:23:51;;;;;;;7.17;2.70;;;;;;;;;;5071578;28;20669;-45
2022/10/24 08:26:18;;;;;;;4.90;2.40;;;;;;;;;;5070426;28;20203;-46
2022/10/24 08:28:45;;;;;;;6.07;2.80;;;;;;;;;;5071703;28;20295;-45
2022/10/24 08:31:12;;;;;;;10.70;3.13;;;;;;;;;;5070751;28;20232;-46
2022/10/24 08:33:39;;;;;;;6.53;2.67;;;;;;;;;;5070261;28;20230;-45
2022/10/24 08:36:06;;;;;;;7.37;2.90;;;;;;;;;;5072066;28;20274;-45
2022/10/24 08:38:34;;;;;;;8.17;2.50;;;;;;;;;;5071821;28;20199;-46
2022/10/24 08:41:00;;;;;;;8.33;2.53;;;;;;;;;;5071951;28;20450;-45
2022/10/24 08:43:26;;;;;;;7.60;2.53;;;;;;;;;;5071764;28;20217;-45
2022/10/24 08:45:58;;;;;;;9.20;2.43;;;;;;;;;;5072028;28;20203;-45
2022/10/24 08:48:26;;;;;;;6.73;2.63;;;;;;;;;;5071795;28;20225;-45
2022/10/24 08:50:55;;;;;;;5.27;2.50;;;;;;;;;;5071788;28;20234;-46
2022/10/24 08:53:24;;;;;;;3.37;2.10;;;;;;;;;;5071948;28;20194;-46
2022/10/24 08:55:52;;;;;;;8.03;2.20;;;;;;;;;;5071916;28;20218;-46
2022/10/24 08:58:21;;;;;;;7.57;2.67;;;;;;;;;;5071659;28;20278;-46
2022/10/24 09:00:49;;;;;;;7.03;2.37;;;;;;;;;;5072046;28;20211;-46
2022/10/24 09:03:20;;;;;;;8.27;2.23;;;;;;;;;;5071807;28;20209;-46
2022/10/24 09:05:47;;;;;;;5.27;1.80;;;;;;;;;;5071664;28;20199;-46
2022/10/24 09:08:17;;;;;;;6.50;2.30;;;;;;;;;;5071612;28;20277;-46
2022/10/24 09:10:48;;;;;;;4.27;1.93;;;;;;;;;;5069658;28;20205;-46
2022/10/24 09:13:17;;;;;;;4.77;1.90;;;;;;;;;;5071709;28;20199;-46
2022/10/24 09:15:43;;;;;;;3.93;1.47;;;;;;;;;;5069706;28;20283;-46
2022/10/24 09:18:13;;;;;;;3.07;1.70;;;;;;;;;;5068659;28;20264;-46
2022/10/24 09:20:39;;;;;;;5.77;1.53;;;;;;;;;;5071333;28;20826;-46
2022/10/24 09:23:05;;;;;;;6.00;1.90;;;;;;;;;;5069568;28;20257;-45
2022/10/24 09:25:33;;;;;;;4.57;1.70;;;;;;;;;;5070675;28;20196;-45
2022/10/24 09:28:01;;;;;;;3.03;1.80;;;;;;;;;;5071532;28;20228;-46
2022/10/24 09:30:29;;;;;;;3.17;1.63;;;;;;;;;;5071390;28;20286;-46
2022/10/24 09:32:56;;;;;;;5.07;1.63;;;;;;;;;;5070966;28;20205;-45
2022/10/24 09:35:23;;;;;;;2.70;1.40;;;;;;;;;;5071201;28;20203;-46
2022/10/24 09:37:49;;;;;;;2.50;1.60;;;;;;;;;;5069220;28;20643;-46
2022/10/24 09:40:20;;;;;;;5.73;1.60;;;;;;;;;;5070659;28;20279;-46
2022/10/24 09:42:48;;;;;;;4.30;1.63;;;;;;;;;;5073109;28;20201;-46
2022/10/24 09:45:29;;;;;;;3.23;1.60;;;;;;;;;;5074544;28;20667;-46
2022/10/24 09:47:57;;;;;;;4.70;1.40;;;;;;;;;;5073900;28;20235;-46
2022/10/24 09:50:24;;;;;;;5.93;1.50;;;;;;;;;;5073961;28;20252;-46
2022/10/24 09:52:50;;;;;;;6.00;1.97;;;;;;;;;;5073921;28;20208;-47
2022/10/24 09:55:18;;;;;;;7.30;1.37;;;;;;;;;;5073098;28;20730;-45
2022/10/24 09:57:44;;;;;;;5.10;1.60;;;;;;;;;;5074359;28;20194;-46
2022/10/24 10:00:19;;;;;;;4.07;1.60;;;;;;;;;;5073776;28;20235;-46
2022/10/24 10:02:57;;;;;;;4.03;1.67;;;;;;;;;;5074478;28;20744;-46
2022/10/24 10:05:23;;;;;;;3.00;1.53;;;;;;;;;;5074015;28;20692;-46
2022/10/24 10:07:50;;;;;;;4.97;1.60;;;;;;;;;;5074119;28;20281;-46
2022/10/24 10:10:25;;;;;;;4.70;1.80;;;;;;;;;;5074122;28;20234;-45
2022/10/24 10:12:55;;;;;;;8.17;1.73;;;;;;;;;;5074038;28;20249;-45
2022/10/24 10:15:28;;;;;;;5.80;1.93;;;;;;;;;;5073760;28;20226;-46
2022/10/24 10:17:56;;;;;;;2.33;1.57;;;;;;;;;;5067502;28;20252;-46
2022/10/24 10:20:26;;;;;;;5.40;2.23;;;;;;;;;;5072853;28;20656;-46
2022/10/24 10:22:52;;;;;;;3.90;1.50;;;;;;;;;;5073776;28;21004;-46
2022/10/24 10:25:28;;;;;;;5.37;1.80;;;;;;;;;;5073381;28;20235;-46
2022/10/24 10:27:54;;;;;;;7.80;1.87;;;;;;;;;;5072025;28;20279;-46
2022/10/24 10:30:20;;;;;;;5.10;1.70;;;;;;;;;;5072228;28;20203;-46
2022/10/24 10:32:52;;;;;;;3.00;1.63;;;;;;;;;;5073666;28;20199;-46
2022/10/24 10:35:20;;;;;;;4.60;1.50;;;;;;;;;;5073583;28;20602;-45
2022/10/24 10:37:48;;;;;;;4.17;2.00;;;;;;;;;;5073623;28;20205;-45
2022/10/24 10:40:25;;;;;;;6.37;1.70;;;;;;;;;;5073713;28;20668;-46
2022/10/24 10:42:57;;;;;;;1.83;1.40;;;;;;;;;;5071891;28;20209;-46
2022/10/24 10:45:31;;;;;;;6.37;1.70;;;;;;;;;;5073575;28;20682;-46
2022/10/24 10:48:01;;;;;;;3.23;1.47;;;;;;;;;;5073264;28;20230;-45
2022/10/24 10:50:30;;;;;;;6.17;1.60;;;;;;;;;;5073351;28;20601;-46
2022/10/24 10:53:04;;;;;;;2.53;1.30;;;;;;;;;;5072514;28;20297;-46
2022/10/24 10:55:35;;;;;;;5.27;1.80;;;;;;;;;;5073165;28;20194;-46
2022/10/24 10:58:05;;;;;;;4.97;1.33;;;;;;;;;;5071775;28;20210;-46
2022/10/24 11:00:37;;;;;;;2.97;1.43;;;;;;;;;;5072084;28;20248;-46
2022/10/24 11:03:08;;;;;;;4.03;1.67;;;;;;;;;;5073458;28;20200;-46
2022/10/24 11:05:43;;;;;;;4.43;1.53;;;;;;;;;;5073063;28;20687;-46
2022/10/24 11:08:23;;;;;;;3.73;1.50;;;;;;;;;;5071222;28;20254;-46
2022/10/24 11:10:53;;;;;;;1.80;1.17;;;;;;;;;;5070264;28;20218;-46
2022/10/24 11:13:20;;;;;;;4.47;1.30;;;;;;;;;;5072960;28;20203;-45
2022/10/24 11:15:48;;;;;;;3.77;1.50;;;;;;;;;;5071146;28;20204;-45
2022/10/24 11:18:17;;;;;;;2.53;1.77;;;;;;;;;;5070989;28;20291;-45
2022/10/24 11:20:45;;;;;;;4.60;1.63;;;;;;;;;;5071684;28;20195;-45
2022/10/24 11:23:14;;;;;;;4.60;1.50;;;;;;;;;;5072595;28;20281;-45
2022/10/24 11:25:44;;;;;;;2.27;1.50;;;;;;;;;;5072516;28;20293;-46
2022/10/24 11:28:15;;;;;;;4.17;1.80;;;;;;;;;;5072623;28;20252;-46
2022/10/24 11:30:44;;;;;;;5.90;1.57;;;;;;;;;;5070271;28;20207;-46
2022/10/24 11:33:13;;;;;;;3.97;2.00;;;;;;;;;;5070574;28;20231;-45
2022/10/24 11:35:43;;;;;;;6.00;2.07;;;;;;;;;;5072311;28;20703;-46
2022/10/24 11:38:14;;;;;;;3.30;1.60;;;;;;;;;;5072754;28;20200;-45
2022/10/24 11:40:43;;;;;;;7.00;1.90;;;;;;;;;;5072450;28;20317;-45
2022/10/24 11:43:13;;;;;;;3.17;1.80;;;;;;;;;;5072463;28;20232;-45
2022/10/24 11:45:42;;;;;;;3.83;1.50;;;;;;;;;;5072513;28;20194;-45
2022/10/24 11:48:12;;;;;;;4.97;1.97;;;;;;;;;;5072132;28;20270;-46
2022/10/24 11:50:39;;;;;;;9.97;2.00;;;;;;;;;;5071856;28;20237;-46
2022/10/24 11:53:11;;;;;;;5.57;1.70;;;;;;;;;;5072406;28;20287;-45
2022/10/24 11:55:41;;;;;;;6.10;1.63;;;;;;;;;;5072374;28;20205;-45
2022/10/24 11:58:12;;;;;;;6.93;2.00;;;;;;;;;;5072274;28;20208;-46
2022/10/24 12:00:41;;;;;;;6.67;1.63;;;;;;;;;;5071833;28;20199;-45
2022/10/24 12:03:23;;;;;;;2.23;1.30;;;;;;;;;;5072214;28;20664;-46
2022/10/24 12:05:58;;;;;;;4.23;1.40;;;;;;;;;;5067654;28;20203;-45
2022/10/24 12:08:36;;;;;;;5.23;1.80;;;;;;;;;;5072158;28;20229;-46
2022/10/24 12:11:10;;;;;;;5.73;1.80;;;;;;;;;;5072280;28;20201;-47
2022/10/24 12:13:49;;;;;;;6.43;1.70;;;;;;;;;;5072071;28;20207;-47
2022/10/24 12:16:20;;;;;;;5.77;2.27;;;;;;;;;;5072096;28;20209;-46
2022/10/24 12:18:47;;;;;;;4.57;1.70;;;;;;;;;;5072077;28;20193;-46
2022/10/24 12:21:14;;;;;;;6.13;1.97;;;;;;;;;;5071929;28;20636;-46
2022/10/24 12:23:41;;;;;;;5.03;1.83;;;;;;;;;;5071836;28;20650;-46
2022/10/24 12:26:08;;;;;;;9.67;1.87;;;;;;;;;;5071849;28;20690;-45
2022/10/24 12:28:35;;;;;;;6.47;1.80;;;;;;;;;;5071703;28;20235;-46
2022/10/24 12:31:09;;;;;;;2.20;1.40;;;;;;;;;;5070030;28;20308;-46
2022/10/24 12:33:36;;;;;;;5.23;1.77;;;;;;;;;;5072042;28;20207;-46
2022/10/24 12:36:02;;;;;;;5.30;1.57;;;;;;;;;;5072167;28;20214;-46
2022/10/24 12:38:46;;;;;;;4.43;1.70;;;;;;;;;;5071945;28;20279;-46
2022/10/24 12:41:27;;;;;;;4.80;1.97;;;;;;;;;;5071894;28;20191;-45
2022/10/24 12:44:08;;;;;;;4.90;1.60;;;;;;;;;;5071643;28;20201;-45
2022/10/24 12:46:54;;;;;;;6.80;2.00;;;;;;;;;;5071547;28;20273;-45
2022/10/24 12:49:26;;;;;;;5.70;1.60;;;;;;;;;;5071737;28;20658;-45
2022/10/24 12:51:52;;;;;;;5.10;1.63;;;;;;;;;;5071786;28;20259;-46
2022/10/24 12:54:37;;;;;;;5.73;1.87;;;;;;;;;;5071725;28;20196;-45
2022/10/24 12:57:21;;;;;;;6.87;1.53;;;;;;;;;;5071744;28;20199;-46
2022/10/24 12:59:48;;;;;;;4.00;1.70;;;;;;;;;;5071773;28;20191;-45
2022/10/24 13:02:29;;;;;;;5.57;1.70;;;;;;;;;;5071722;28;20256;-45
2022/10/24 13:05:02;;;;;;;6.13;2.13;;;;;;;;;;5069172;28;20286;-45
2022/10/24 13:07:34;;;;;;;5.77;2.00;;;;;;;;;;5071439;28;20698;-45
2022/10/24 13:10:06;;;;;;;3.13;1.67;;;;;;;;;;5071652;28;20208;-46
2022/10/24 13:12:39;;;;;;;5.03;1.90;;;;;;;;;;5071418;28;20224;-45
2022/10/24 13:15:15;;;;;;;4.63;1.60;;;;;;;;;;5071707;28;20211;-45
2022/10/24 13:17:44;;;;;;;5.03;1.83;;;;;;;;;;5074388;28;20555;-47
2022/10/24 13:20:16;;;;;;;5.47;1.77;;;;;;;;;;5075287;28;20736;-45
2022/10/24 13:22:43;;;;;;;5.67;1.70;;;;;;;;;;5075155;28;20252;-45
2022/10/24 13:25:20;;;;;;;7.53;2.20;;;;;;;;;;5074466;28;20212;-45
2022/10/24 13:28:06;;;;;;;6.03;2.07;;;;;;;;;;5073442;28;20242;-46
2022/10/24 13:30:32;;;;;;;3.23;1.33;;;;;;;;;;5073916;28;20694;-45
2022/10/24 13:33:17;;;;;;;7.60;1.73;;;;;;;;;;5074823;28;20202;-45
2022/10/24 13:35:44;;;;;;;6.73;1.93;;;;;;;;;;5074931;28;20691;-45
2022/10/24 13:38:12;;;;;;;3.27;1.50;;;;;;;;;;5074884;28;20729;-45
2022/10/24 13:40:41;;;;;;;5.27;2.07;;;;;;;;;;5073507;28;20203;-45
2022/10/24 13:43:13;;;;;;;5.07;1.60;;;;;;;;;;5074634;28;20210;-45
2022/10/24 13:45:44;;;;;;;3.63;1.40;;;;;;;;;;5074598;28;20201;-45
2022/10/24 13:48:11;;;;;;;4.63;1.63;;;;;;;;;;5073476;28;20232;-45
2022/10/24 13:50:38;;;;;;;10.20;2.27;;;;;;;;;;5073665;28;20246;-45
2022/10/24 13:53:13;;;;;;;3.10;1.53;;;;;;;;;;5074684;28;20232;-45
2022/10/24 13:55:42;;;;;;;6.53;2.00;;;;;;;;;;5073842;28;20663;-45
2022/10/24 13:58:09;;;;;;;5.67;1.87;;;;;;;;;;5074651;28;20225;-45
2022/10/24 14:00:37;;;;;;;4.87;1.80;;;;;;;;;;5074194;28;20564;-45
2022/10/24 14:03:03;;;;;;;5.77;1.97;;;;;;;;;;5074190;28;20219;-45
2022/10/24 14:05:31;;;;;;;5.07;2.07;;;;;;;;;;5073967;28;20198;-45
2022/10/24 14:07:57;;;;;;;5.77;2.20;;;;;;;;;;5073185;28;20235;-45
2022/10/24 14:10:25;;;;;;;7.97;2.17;;;;;;;;;;5074146;28;20231;-48
2022/10/24 14:12:55;;;;;;;3.90;1.60;;;;;;;;;;5074168;28;20720;-45
2022/10/24 14:15:22;;;;;;;5.30;1.63;;;;;;;;;;5074206;28;20196;-45
2022/10/24 14:17:56;;;;;;;3.77;1.70;;;;;;;;;;5073423;28;20471;-45
2022/10/24 14:20:23;;;;;;;8.17;2.00;;;;;;;;;;5074191;28;20195;-45
2022/10/24 14:22:49;;;;;;;5.70;1.70;;;;;;;;;;5073905;28;20206;-45
2022/10/24 14:25:27;;;;;;;3.37;1.93;;;;;;;;;;5073406;28;20205;-45
2022/10/24 14:27:54;;;;;;;10.53;1.90;;;;;;;;;;5070859;28;20642;-45
2022/10/24 14:30:21;;;;;;;4.97;1.93;;;;;;;;;;5074385;28;20193;-45
2022/10/24 14:32:47;;;;;;;4.97;1.93;;;;;;;;;;5074192;28;20199;-45
2022/10/24 14:35:13;;;;;;;5.90;1.80;;;;;;;;;;5074308;28;20222;-45
2022/10/24 14:37:40;;;;;;;4.37;1.50;;;;;;;;;;5074122;28;20731;-45
2022/10/24 14:40:11;;;;;;;7.37;1.80;;;;;;;;;;5074091;28;20608;-45
2022/10/24 14:42:38;;;;;;;5.23;1.97;;;;;;;;;;5073871;28;20205;-45
2022/10/24 14:45:05;;;;;;;7.40;2.13;;;;;;;;;;5074027;28;20201;-45
2022/10/24 14:47:33;;;;;;;4.90;1.83;;;;;;;;;;5073895;28;20224;-45
2022/10/24 14:49:59;;;;;;;5.93;1.93;;;;;;;;;;5073949;28;20286;-45